createdAt,value
2019-01-27T00:00:49.834Z,64.20
2019-01-27T00:01:53.168Z,105.58
2019-01-27T00:02:56.512Z,69.03
2019-01-27T00:03:59.799Z,65.92
2019-01-27T00:05:03.447Z,68.45
2019-01-27T00:06:07.172Z,57.17
2019-01-27T00:07:10.510Z,91.30
2019-01-27T00:08:14.694Z,89.97
2019-01-27T00:09:17.972Z,63.87
2019-01-27T00:10:21.603Z,55.50
2019-01-27T00:11:24.885Z,69.72
2019-01-27T00:12:28.289Z,59.13
2019-01-27T00:13:31.574Z,70.62
2019-01-27T00:14:35.284Z,61.88
2019-01-27T00:15:38.743Z,77.80
2019-01-27T00:16:42.067Z,66.80
2019-01-27T00:17:45.391Z,58.85
2019-01-27T00:18:48.744Z,60.85
2019-01-27T00:19:52.033Z,63.52
2019-01-27T00:20:55.313Z,65.97
2019-01-27T00:21:58.598Z,66.00
2019-01-27T00:23:01.908Z,59.55
2019-01-27T00:24:05.270Z,70.57
2019-01-27T00:25:08.631Z,59.85
2019-01-27T00:26:11.924Z,79.97
2019-01-27T00:27:15.576Z,68.20
2019-01-27T00:28:18.905Z,65.65
2019-01-27T00:29:22.194Z,67.72
2019-01-27T00:30:27.003Z,63.75
2019-01-27T00:31:30.295Z,60.15
2019-01-27T00:32:33.571Z,62.53
2019-01-27T00:33:36.886Z,60.65
2019-01-27T00:34:40.175Z,58.65
2019-01-27T00:35:43.452Z,61.23
2019-01-27T00:36:46.743Z,57.30
2019-01-27T00:37:50.020Z,65.95
2019-01-27T00:38:53.345Z,61.15
2019-01-27T00:39:57.145Z,60.08
2019-01-27T00:41:00.428Z,60.65
2019-01-27T00:42:03.872Z,61.68
2019-01-27T00:43:07.148Z,63.08
2019-01-27T00:44:11.156Z,70.12
2019-01-27T00:45:16.963Z,66.05
2019-01-27T00:46:20.251Z,65.50
2019-01-27T00:47:23.535Z,66.25
2019-01-27T00:48:26.893Z,65.92
2019-01-27T00:49:30.177Z,60.98
2019-01-27T00:50:33.468Z,61.37
2019-01-27T00:51:36.749Z,58.60
2019-01-27T00:52:40.027Z,60.90
2019-01-27T00:53:43.602Z,59.13
2019-01-27T00:54:47.195Z,64.30
2019-01-27T00:55:50.551Z,55.33
2019-01-27T00:56:53.901Z,59.23
2019-01-27T00:57:57.184Z,55.78
2019-01-27T00:59:00.538Z,57.60
2019-01-27T01:00:07.274Z,54.63
2019-01-27T01:01:10.558Z,59.10
2019-01-27T01:02:13.843Z,57.98
2019-01-27T01:03:17.496Z,55.28
2019-01-27T01:04:20.779Z,57.03
2019-01-27T01:05:24.170Z,62.20
2019-01-27T01:06:27.453Z,60.83
2019-01-27T01:07:30.735Z,53.08
2019-01-27T01:08:34.031Z,51.18
2019-01-27T01:09:37.318Z,53.92
2019-01-27T01:10:40.725Z,59.03
2019-01-27T01:11:44.009Z,54.15
2019-01-27T01:12:47.291Z,53.60
2019-01-27T01:13:50.577Z,55.88
2019-01-27T01:14:53.881Z,58.85
2019-01-27T01:15:57.201Z,75.00
2019-01-27T01:17:00.480Z,63.90
2019-01-27T01:18:04.287Z,64.00
2019-01-27T01:19:07.573Z,64.95
2019-01-27T01:20:13.960Z,78.33
2019-01-27T01:21:17.351Z,77.53
2019-01-27T01:22:20.696Z,66.72
2019-01-27T01:23:23.979Z,62.08
2019-01-27T01:24:27.633Z,61.00
2019-01-27T01:25:30.957Z,66.62
2019-01-27T01:26:34.281Z,70.03
2019-01-27T01:27:37.630Z,71.57
2019-01-27T01:28:40.914Z,64.72
2019-01-27T01:29:44.195Z,66.70
2019-01-27T01:30:47.474Z,73.25
2019-01-27T01:31:50.797Z,70.57
2019-01-27T01:32:54.089Z,65.95
2019-01-27T01:33:57.388Z,65.85
2019-01-27T01:35:00.670Z,67.72
2019-01-27T01:36:04.022Z,63.38
2019-01-27T01:37:07.319Z,66.47
2019-01-27T01:38:10.673Z,60.73
2019-01-27T01:39:13.967Z,61.68
2019-01-27T01:40:18.964Z,66.75
2019-01-27T01:41:22.247Z,65.28
2019-01-27T01:42:25.554Z,65.00
2019-01-27T01:43:28.835Z,57.38
2019-01-27T01:44:32.115Z,54.55
2019-01-27T01:45:35.408Z,61.55
2019-01-27T01:46:38.693Z,62.62
2019-01-27T01:47:42.015Z,65.03
2019-01-27T01:48:45.311Z,59.27
2019-01-27T01:49:48.587Z,73.97
2019-01-27T01:50:51.931Z,87.05
2019-01-27T01:51:55.213Z,83.58
2019-01-27T01:52:58.541Z,76.60
2019-01-27T01:54:01.822Z,66.22
2019-01-27T01:55:06.584Z,70.25
2019-01-27T01:56:09.879Z,67.85
2019-01-27T01:57:13.154Z,68.72
2019-01-27T01:58:16.466Z,70.92
2019-01-27T01:59:19.816Z,130.72
2019-01-27T02:00:25.449Z,145.45
2019-01-27T02:01:28.731Z,81.80
2019-01-27T02:02:32.094Z,72.72
2019-01-27T02:03:35.486Z,64.67
2019-01-27T02:04:38.772Z,64.75
2019-01-27T02:05:42.132Z,59.23
2019-01-27T02:06:45.422Z,58.73
2019-01-27T02:07:49.155Z,61.18
2019-01-27T02:08:52.583Z,62.53
2019-01-27T02:09:55.864Z,61.13
2019-01-27T02:10:59.147Z,59.80
2019-01-27T02:12:02.497Z,61.53
2019-01-27T02:13:06.286Z,67.42
2019-01-27T02:14:09.681Z,67.70
2019-01-27T02:15:24.390Z,77.60
2019-01-27T02:16:27.981Z,82.12
2019-01-27T02:17:31.339Z,102.27
2019-01-27T02:18:35.811Z,101.47
2019-01-27T02:19:39.145Z,79.25
2019-01-27T02:20:42.500Z,83.58
2019-01-27T02:21:45.873Z,68.30
2019-01-27T02:22:49.159Z,68.42
2019-01-27T02:23:52.445Z,70.80
2019-01-27T02:24:55.772Z,68.52
2019-01-27T02:25:59.069Z,66.77
2019-01-27T02:27:02.356Z,71.33
2019-01-27T02:28:05.702Z,68.25
2019-01-27T02:29:09.065Z,65.08
2019-01-27T02:30:14.009Z,66.65
2019-01-27T02:31:17.291Z,60.30
2019-01-27T02:32:20.571Z,58.33
2019-01-27T02:33:23.847Z,59.50
2019-01-27T02:34:27.164Z,65.62
2019-01-27T02:35:30.452Z,64.50
2019-01-27T02:36:33.734Z,66.45
2019-01-27T02:37:37.018Z,67.25
2019-01-27T02:38:40.292Z,62.75
2019-01-27T02:39:43.599Z,62.83
2019-01-27T02:40:46.880Z,65.83
2019-01-27T02:41:50.168Z,61.08
2019-01-27T02:42:53.453Z,67.85
2019-01-27T02:43:56.812Z,68.87
2019-01-27T02:45:00.487Z,65.90
2019-01-27T02:46:03.853Z,71.65
2019-01-27T02:47:07.139Z,65.32
2019-01-27T02:48:10.427Z,64.03
2019-01-27T02:49:13.709Z,66.28
2019-01-27T02:50:17.595Z,64.53
2019-01-27T02:51:20.872Z,60.92
2019-01-27T02:52:24.531Z,63.25
2019-01-27T02:53:27.821Z,54.83
2019-01-27T02:54:31.185Z,54.50
2019-01-27T02:55:34.566Z,57.88
2019-01-27T02:56:37.925Z,57.33
2019-01-27T02:57:41.273Z,58.48
2019-01-27T02:58:44.558Z,56.28
2019-01-27T02:59:47.908Z,54.65
2019-01-27T03:00:51.217Z,62.35
2019-01-27T03:01:54.506Z,55.88
2019-01-27T03:02:57.859Z,61.88
2019-01-27T03:04:01.149Z,56.55
2019-01-27T03:05:07.471Z,51.83
2019-01-27T03:06:12.855Z,55.23
2019-01-27T03:07:17.789Z,61.53
2019-01-27T03:08:21.068Z,55.83
2019-01-27T03:09:24.820Z,57.23
2019-01-27T03:10:28.107Z,58.35
2019-01-27T03:11:33.029Z,61.10
2019-01-27T03:12:36.320Z,60.25
2019-01-27T03:13:39.603Z,57.33
2019-01-27T03:14:42.898Z,60.88
2019-01-27T03:15:46.185Z,57.27
2019-01-27T03:16:50.857Z,65.47
2019-01-27T03:17:54.140Z,60.78
2019-01-27T03:18:57.425Z,62.30
2019-01-27T03:20:00.705Z,64.00
2019-01-27T03:21:03.998Z,67.78
2019-01-27T03:22:07.317Z,66.15
2019-01-27T03:23:10.669Z,69.97
2019-01-27T03:24:13.979Z,69.60
2019-01-27T03:25:18.468Z,67.17
2019-01-27T03:26:21.764Z,72.50
2019-01-27T03:27:25.089Z,65.47
2019-01-27T03:28:28.774Z,69.07
2019-01-27T03:29:32.057Z,72.65
2019-01-27T03:30:35.420Z,67.67
2019-01-27T03:31:38.713Z,77.58
2019-01-27T03:32:42.456Z,74.55
2019-01-27T03:33:45.848Z,72.47
2019-01-27T03:34:49.139Z,69.30
2019-01-27T03:35:52.519Z,69.62
2019-01-27T03:36:55.810Z,66.37
2019-01-27T03:37:59.134Z,66.30
2019-01-27T03:39:02.477Z,64.32
2019-01-27T03:40:09.031Z,68.02
2019-01-27T03:41:12.324Z,60.15
2019-01-27T03:42:15.674Z,63.20
2019-01-27T03:43:18.985Z,73.20
2019-01-27T03:44:22.276Z,63.78
2019-01-27T03:45:25.572Z,64.30
2019-01-27T03:46:28.848Z,61.25
2019-01-27T03:47:32.139Z,61.73
2019-01-27T03:48:35.454Z,64.32
2019-01-27T03:49:38.728Z,67.22
2019-01-27T03:50:42.388Z,66.05
2019-01-27T03:51:46.233Z,64.80
2019-01-27T03:52:49.597Z,58.78
2019-01-27T03:53:52.911Z,60.05
2019-01-27T03:54:56.232Z,64.30
2019-01-27T03:55:59.508Z,60.80
2019-01-27T03:57:02.804Z,57.03
2019-01-27T03:58:06.091Z,61.25
2019-01-27T03:59:09.412Z,56.25
2019-01-27T04:00:15.855Z,55.73
2019-01-27T04:01:19.509Z,58.52
2019-01-27T04:02:22.782Z,61.02
2019-01-27T04:03:26.063Z,60.80
2019-01-27T04:04:29.385Z,57.48
2019-01-27T04:05:32.665Z,59.77
2019-01-27T04:06:36.021Z,60.80
2019-01-27T04:07:39.325Z,67.15
2019-01-27T04:08:42.601Z,63.83
2019-01-27T04:09:45.996Z,62.23
2019-01-27T04:10:49.716Z,65.40
2019-01-27T04:11:53.013Z,67.27
2019-01-27T04:12:56.307Z,63.87
2019-01-27T04:13:59.597Z,65.47
2019-01-27T04:15:02.993Z,62.23
2019-01-27T04:16:06.272Z,59.50
2019-01-27T04:17:09.954Z,64.25
2019-01-27T04:18:13.242Z,63.40
2019-01-27T04:19:16.525Z,61.30
2019-01-27T04:20:23.399Z,68.42
2019-01-27T04:21:26.672Z,64.05
2019-01-27T04:22:29.996Z,70.20
2019-01-27T04:23:33.649Z,68.78
2019-01-27T04:24:36.934Z,70.55
2019-01-27T04:25:41.898Z,71.57
2019-01-27T04:26:45.210Z,70.57
2019-01-27T04:27:48.506Z,71.50
2019-01-27T04:28:51.852Z,66.65
2019-01-27T04:29:55.501Z,69.55
2019-01-27T04:30:58.958Z,73.40
2019-01-27T04:32:02.283Z,72.58
2019-01-27T04:33:05.578Z,73.95
2019-01-27T04:34:08.866Z,80.30
2019-01-27T04:35:13.087Z,71.77
2019-01-27T04:36:16.376Z,70.37
2019-01-27T04:37:19.699Z,67.82
2019-01-27T04:38:22.997Z,69.12
2019-01-27T04:39:26.281Z,78.33
2019-01-27T04:40:29.571Z,70.08
2019-01-27T04:41:32.849Z,77.53
2019-01-27T04:42:36.182Z,66.35
2019-01-27T04:43:39.473Z,67.00
2019-01-27T04:44:43.148Z,60.17
2019-01-27T04:45:46.436Z,58.73
2019-01-27T04:46:49.721Z,62.03
2019-01-27T04:47:53.038Z,60.17
2019-01-27T04:48:56.336Z,57.80
2019-01-27T04:49:59.936Z,55.63
2019-01-27T04:51:03.222Z,64.97
2019-01-27T04:52:06.510Z,59.95
2019-01-27T04:53:09.824Z,66.60
2019-01-27T04:54:13.150Z,61.92
2019-01-27T04:55:20.186Z,60.45
2019-01-27T04:56:23.837Z,63.68
2019-01-27T04:57:27.119Z,64.77
2019-01-27T04:58:30.441Z,59.83
2019-01-27T04:59:33.798Z,64.20
2019-01-27T05:00:37.084Z,62.23
2019-01-27T05:01:40.375Z,58.83
2019-01-27T05:02:45.299Z,64.30
2019-01-27T05:03:50.271Z,65.92
2019-01-27T05:04:53.626Z,61.88
2019-01-27T05:05:56.977Z,65.17
2019-01-27T05:07:08.420Z,63.20
2019-01-27T05:08:10.447Z,62.55
2019-01-27T05:09:13.764Z,64.82
2019-01-27T05:10:17.054Z,56.28
2019-01-27T05:11:20.333Z,59.20
2019-01-27T05:12:23.658Z,66.77
2019-01-27T05:13:26.945Z,59.73
2019-01-27T05:14:30.274Z,63.50
2019-01-27T05:15:34.344Z,63.58
2019-01-27T05:16:37.695Z,65.32
2019-01-27T05:17:40.977Z,61.10
2019-01-27T05:18:44.306Z,63.23
2019-01-27T05:19:47.591Z,61.08
2019-01-27T05:20:51.233Z,66.33
2019-01-27T05:21:54.870Z,69.25
2019-01-27T05:22:58.154Z,64.50
2019-01-27T05:24:01.436Z,70.50
2019-01-27T05:25:08.102Z,73.05
2019-01-27T05:26:11.484Z,68.57
2019-01-27T05:27:14.885Z,73.20
2019-01-27T05:28:18.229Z,69.82
2019-01-27T05:29:21.504Z,66.07
2019-01-27T05:30:27.831Z,67.82
2019-01-27T05:31:31.441Z,65.03
2019-01-27T05:32:34.723Z,62.20
2019-01-27T05:33:38.071Z,67.87
2019-01-27T05:34:41.354Z,68.55
2019-01-27T05:35:44.667Z,64.22
2019-01-27T05:36:48.272Z,63.85
2019-01-27T05:37:51.557Z,63.78
2019-01-27T05:38:54.861Z,67.08
2019-01-27T05:39:58.140Z,86.37
2019-01-27T05:41:01.544Z,76.92
2019-01-27T05:42:04.837Z,70.52
2019-01-27T05:43:08.130Z,165.40
2019-01-27T05:44:11.456Z,93.37
2019-01-27T05:45:18.820Z,80.42
2019-01-27T05:46:22.103Z,81.22
2019-01-27T05:47:25.400Z,81.20
2019-01-27T05:48:28.678Z,77.85
2019-01-27T05:49:32.013Z,79.82
2019-01-27T05:50:35.295Z,80.72
2019-01-27T05:51:38.593Z,91.65
2019-01-27T05:52:41.888Z,119.67
2019-01-27T05:53:45.246Z,103.83
2019-01-27T05:54:48.679Z,95.17
2019-01-27T05:55:51.979Z,76.77
2019-01-27T05:56:56.701Z,87.75
2019-01-27T05:58:00.099Z,78.33
2019-01-27T05:59:03.388Z,76.42
2019-01-27T06:00:09.968Z,76.87
2019-01-27T06:01:13.296Z,74.92
2019-01-27T06:02:16.584Z,81.28
2019-01-27T06:03:19.869Z,84.83
2019-01-27T06:04:23.150Z,64.03
2019-01-27T06:05:26.476Z,72.22
2019-01-27T06:06:29.753Z,76.67
2019-01-27T06:07:33.045Z,67.12
2019-01-27T06:08:36.326Z,69.53
2019-01-27T06:09:39.611Z,69.47
2019-01-27T06:10:42.933Z,65.90
2019-01-27T06:11:46.227Z,65.12
2019-01-27T06:12:49.514Z,68.33
2019-01-27T06:13:52.875Z,73.72
2019-01-27T06:14:56.168Z,67.55
2019-01-27T06:15:59.481Z,70.35
2019-01-27T06:17:03.117Z,62.08
2019-01-27T06:18:06.409Z,63.13
2019-01-27T06:19:09.762Z,68.12
2019-01-27T06:20:17.099Z,66.25
2019-01-27T06:21:20.396Z,71.22
2019-01-27T06:22:23.678Z,70.85
2019-01-27T06:23:27.434Z,71.30
2019-01-27T06:24:30.830Z,70.90
2019-01-27T06:25:34.204Z,68.00
2019-01-27T06:26:37.522Z,68.72
2019-01-27T06:27:40.811Z,70.70
2019-01-27T06:28:44.103Z,68.52
2019-01-27T06:29:47.482Z,65.35
2019-01-27T06:30:51.096Z,67.42
2019-01-27T06:31:54.424Z,69.05
2019-01-27T06:32:59.351Z,70.87
2019-01-27T06:34:02.902Z,76.30
2019-01-27T06:35:06.561Z,84.80
2019-01-27T06:36:09.843Z,83.00
2019-01-27T06:37:13.234Z,69.58
2019-01-27T06:38:16.528Z,68.20
2019-01-27T06:39:19.811Z,67.53
2019-01-27T06:40:23.098Z,67.00
2019-01-27T06:41:27.458Z,78.05
2019-01-27T06:42:30.779Z,65.85
2019-01-27T06:43:34.084Z,65.55
2019-01-27T06:44:37.410Z,73.33
2019-01-27T06:45:40.695Z,82.82
2019-01-27T06:46:43.986Z,83.17
2019-01-27T06:47:47.373Z,80.70
2019-01-27T06:48:50.663Z,90.53
2019-01-27T06:49:53.951Z,80.10
2019-01-27T06:50:57.613Z,76.77
2019-01-27T06:52:00.907Z,79.80
2019-01-27T06:53:04.509Z,81.05
2019-01-27T06:54:07.884Z,76.47
2019-01-27T06:55:14.108Z,81.17
2019-01-27T06:56:17.421Z,74.25
2019-01-27T06:57:20.738Z,90.90
2019-01-27T06:58:25.676Z,82.40
2019-01-27T06:59:30.798Z,83.45
2019-01-27T07:00:44.382Z,87.92
2019-01-27T07:01:52.291Z,81.15
2019-01-27T07:02:57.217Z,80.32
2019-01-27T07:04:04.917Z,78.47
2019-01-27T07:05:13.447Z,83.35
2019-01-27T07:06:33.736Z,82.33
2019-01-27T07:07:39.055Z,86.42
2019-01-27T07:08:50.328Z,93.03
2019-01-27T07:09:55.562Z,93.12
2019-01-27T07:11:03.655Z,101.67
2019-01-27T07:12:08.919Z,100.47
2019-01-27T07:13:13.845Z,100.75
2019-01-27T07:14:33.840Z,86.00
2019-01-27T07:15:54.951Z,89.13
2019-01-27T07:17:17.756Z,82.22
2019-01-27T07:18:28.374Z,87.90
2019-01-27T07:19:35.731Z,81.17
2019-01-27T07:20:43.399Z,85.92
2019-01-27T07:21:51.447Z,92.35
2019-01-27T07:22:59.412Z,101.55
2019-01-27T07:24:06.823Z,109.07
2019-01-27T07:25:28.389Z,114.92
2019-01-27T07:26:41.841Z,100.67
2019-01-27T07:27:56.561Z,135.32
2019-01-27T07:29:07.317Z,166.00
2019-01-27T07:32:12.576Z,100.82
2019-01-27T07:33:33.518Z,94.15
2019-01-27T07:34:38.499Z,87.50
2019-01-27T07:35:46.004Z,79.75
2019-01-27T07:37:07.283Z,78.57
2019-01-27T07:38:17.930Z,85.32
2019-01-27T07:39:28.536Z,81.05
2019-01-27T07:40:33.492Z,82.75
2019-01-27T07:41:53.487Z,85.85
2019-01-27T07:42:58.424Z,93.58
2019-01-27T07:44:08.973Z,111.25
2019-01-27T07:45:23.841Z,94.77
2019-01-27T07:46:28.795Z,98.12
2019-01-27T07:47:33.715Z,94.22
2019-01-27T07:48:41.615Z,97.67
2019-01-27T07:49:46.573Z,105.50
2019-01-27T07:50:51.492Z,95.70
2019-01-27T07:52:02.130Z,138.97
2019-01-27T07:53:15.833Z,108.47
2019-01-27T07:54:32.801Z,91.67
2019-01-27T07:55:46.628Z,91.05
2019-01-27T07:57:00.268Z,100.70
2019-01-27T07:58:07.947Z,81.45
2019-01-27T07:59:18.411Z,81.15
2019-01-27T08:00:26.228Z,69.87
2019-01-27T08:01:40.250Z,77.42
2019-01-27T08:02:45.183Z,81.53
2019-01-27T08:03:50.140Z,77.90
2019-01-27T08:04:55.065Z,78.52
2019-01-27T08:06:00.113Z,77.95
2019-01-27T08:07:04.988Z,83.05
2019-01-27T08:08:13.077Z,86.78
2019-01-27T08:09:23.831Z,79.58
2019-01-27T08:10:28.760Z,75.75
2019-01-27T08:11:51.795Z,72.00
2019-01-27T08:13:02.397Z,81.87
2019-01-27T08:14:07.328Z,90.67
2019-01-27T08:15:29.050Z,99.70
2019-01-27T08:16:33.979Z,83.72
2019-01-27T08:17:41.679Z,85.85
2019-01-27T08:18:46.612Z,90.97
2019-01-27T08:20:00.397Z,92.82
2019-01-27T08:21:05.356Z,81.85
2019-01-27T08:22:28.163Z,91.63
2019-01-27T08:23:39.134Z,71.87
2019-01-27T08:24:49.554Z,72.32
2019-01-27T08:25:54.485Z,74.45
2019-01-27T08:27:11.043Z,91.65
2019-01-27T08:28:15.971Z,138.52
2019-01-27T08:29:29.863Z,86.65
2019-01-27T08:30:46.868Z,91.02
2019-01-27T08:31:54.418Z,72.72
2019-01-27T08:32:59.371Z,78.28
2019-01-27T08:34:04.724Z,97.35
2019-01-27T08:35:19.601Z,77.53
2019-01-27T08:36:24.537Z,73.22
2019-01-27T08:37:32.530Z,75.25
2019-01-27T08:38:46.509Z,64.05
2019-01-27T08:39:51.439Z,71.12
2019-01-27T08:40:59.158Z,74.82
2019-01-27T08:42:07.174Z,85.15
2019-01-27T08:43:17.850Z,78.72
2019-01-27T08:44:31.827Z,73.57
2019-01-27T08:45:42.602Z,72.00
2019-01-27T08:46:47.537Z,65.62
2019-01-27T08:47:50.831Z,73.87
2019-01-27T08:48:54.119Z,76.50
2019-01-27T08:49:57.452Z,74.60
2019-01-27T08:51:00.901Z,71.17
2019-01-27T08:52:04.262Z,83.07
2019-01-27T08:53:07.559Z,85.57
2019-01-27T08:54:10.853Z,72.13
2019-01-27T08:55:14.553Z,68.33
2019-01-27T08:56:18.238Z,70.47
2019-01-27T08:57:21.548Z,72.00
2019-01-27T08:58:24.834Z,70.10
2019-01-27T08:59:28.120Z,72.93
2019-01-27T09:00:33.079Z,74.93
2019-01-27T09:01:53.887Z,71.20
2019-01-27T09:02:58.815Z,75.33
2019-01-27T09:04:03.732Z,63.37
2019-01-27T09:05:10.599Z,66.57
2019-01-27T09:06:18.343Z,65.73
2019-01-27T09:07:23.580Z,74.23
2019-01-27T09:08:28.812Z,71.07
2019-01-27T09:09:36.861Z,67.10
2019-01-27T09:10:41.855Z,70.57
2019-01-27T09:11:46.830Z,71.50
2019-01-27T09:13:00.298Z,67.10
2019-01-27T09:14:05.213Z,78.87
2019-01-27T09:15:16.877Z,66.07
2019-01-27T09:16:24.806Z,62.43
2019-01-27T09:17:35.697Z,70.27
2019-01-27T09:18:52.600Z,72.67
2019-01-27T09:20:03.333Z,63.43
2019-01-27T09:21:11.017Z,67.53
2019-01-27T09:22:22.261Z,69.73
2019-01-27T09:23:27.239Z,74.13
2019-01-27T09:24:48.491Z,69.47
2019-01-27T09:26:05.459Z,87.30
2019-01-27T09:27:10.398Z,73.57
2019-01-27T09:28:18.208Z,65.03
2019-01-27T09:29:26.067Z,62.07
2019-01-27T09:30:43.241Z,65.73
2019-01-27T09:31:53.968Z,73.07
2019-01-27T09:32:58.906Z,67.93
2019-01-27T09:34:13.401Z,66.70
2019-01-27T09:35:30.229Z,69.07
2019-01-27T09:36:35.151Z,57.73
2019-01-27T09:37:40.075Z,57.50
2019-01-27T09:38:45.174Z,58.10
2019-01-27T09:39:55.961Z,58.87
2019-01-27T09:41:00.956Z,65.87
2019-01-27T09:42:06.623Z,70.87
2019-01-27T09:43:14.695Z,72.27
2019-01-27T09:44:22.080Z,94.87
2019-01-27T09:45:27.009Z,62.90
2019-01-27T09:46:34.665Z,67.57
2019-01-27T09:47:55.849Z,51.03
2019-01-27T09:49:00.797Z,49.53
2019-01-27T09:50:08.582Z,50.63
2019-01-27T09:51:19.471Z,50.37
2019-01-27T09:52:24.416Z,52.10
2019-01-27T09:53:29.352Z,54.17
2019-01-27T09:54:34.297Z,50.13
2019-01-27T09:55:42.252Z,53.90
2019-01-27T09:56:55.989Z,47.43
2019-01-27T09:58:00.935Z,55.30
2019-01-27T09:59:14.814Z,56.30
2019-01-27T10:00:20.681Z,59.30
2019-01-27T10:01:25.635Z,79.87
2019-01-27T10:02:34.784Z,55.57
2019-01-27T10:03:55.352Z,60.53
2019-01-27T10:05:00.330Z,55.50
2019-01-27T10:06:05.252Z,56.17
2019-01-27T10:07:22.232Z,53.97
2019-01-27T10:08:30.013Z,49.23
2019-01-27T10:09:51.534Z,49.27
2019-01-27T10:11:02.106Z,47.57
2019-01-27T10:12:13.191Z,44.33
2019-01-27T10:13:18.103Z,44.53
2019-01-27T10:14:25.696Z,41.30
2019-01-27T10:15:36.387Z,41.33
2019-01-27T10:16:41.332Z,36.03
2019-01-27T10:17:55.158Z,38.70
2019-01-27T10:19:03.067Z,36.67
2019-01-27T10:20:12.753Z,38.93
2019-01-27T10:21:17.738Z,37.53
2019-01-27T10:22:31.422Z,39.00
2019-01-27T10:23:39.364Z,62.67
2019-01-27T10:25:00.781Z,91.80
2019-01-27T10:26:20.904Z,32.83
2019-01-27T10:27:25.908Z,19.80
2019-01-27T10:28:33.859Z,24.77
2019-01-27T10:29:39.225Z,30.63
2019-01-27T10:30:46.969Z,31.27
2019-01-27T10:31:52.253Z,33.90
2019-01-27T10:32:57.347Z,142.63
2019-01-27T10:34:18.397Z,39.73
2019-01-27T10:35:42.796Z,35.90
2019-01-27T10:37:03.647Z,37.83
2019-01-27T10:38:14.695Z,33.97
2019-01-27T10:39:22.520Z,46.63
2019-01-27T10:40:45.161Z,41.47
2019-01-27T10:41:58.717Z,41.17
2019-01-27T10:43:21.494Z,71.27
2019-01-27T10:44:32.027Z,45.17
2019-01-27T10:45:38.260Z,39.33
2019-01-27T10:46:49.427Z,35.73
2019-01-27T10:48:12.374Z,41.40
2019-01-27T10:49:29.338Z,38.40
2019-01-27T10:50:40.019Z,46.83
2019-01-27T10:52:03.068Z,47.90
2019-01-27T10:53:10.890Z,61.17
2019-01-27T10:54:21.739Z,68.53
2019-01-27T10:55:35.542Z,47.30
2019-01-27T10:56:40.476Z,36.97
2019-01-27T10:57:45.472Z,45.90
2019-01-27T10:58:51.040Z,32.80
2019-01-27T10:59:56.010Z,27.50
2019-01-27T11:01:01.052Z,23.07
2019-01-27T11:02:12.037Z,27.83
2019-01-27T11:03:17.442Z,23.20
2019-01-27T11:04:34.982Z,23.40
2019-01-27T11:05:55.574Z,21.83
2019-01-27T11:07:16.449Z,22.33
2019-01-27T11:08:39.613Z,26.00
2019-01-27T11:09:50.265Z,35.17
2019-01-27T11:11:07.058Z,35.30
2019-01-27T11:12:12.106Z,35.23
2019-01-27T11:13:35.340Z,29.93
2019-01-27T11:14:40.283Z,26.23
2019-01-27T11:15:57.317Z,26.33
2019-01-27T11:17:10.990Z,27.07
2019-01-27T11:18:25.013Z,25.80
2019-01-27T11:19:32.843Z,29.70
2019-01-27T11:20:40.069Z,29.57
2019-01-27T11:21:53.127Z,26.47
2019-01-27T11:23:14.207Z,26.97
2019-01-27T11:24:21.805Z,23.00
2019-01-27T11:25:42.899Z,24.13
2019-01-27T11:26:52.247Z,25.37
2019-01-27T11:27:57.169Z,61.20
2019-01-27T11:29:04.782Z,88.63
2019-01-27T11:30:31.231Z,43.90
2019-01-27T11:31:45.178Z,30.93
2019-01-27T11:32:50.187Z,25.87
2019-01-27T11:34:00.698Z,22.83
2019-01-27T11:35:06.660Z,24.87
2019-01-27T11:36:20.751Z,21.33
2019-01-27T11:37:37.853Z,20.87
2019-01-27T11:38:45.503Z,15.63
2019-01-27T11:39:56.324Z,16.27
2019-01-27T11:41:17.256Z,13.37
2019-01-27T11:42:28.154Z,19.73
2019-01-27T11:43:33.099Z,16.90
2019-01-27T11:44:53.417Z,17.83
2019-01-27T11:46:07.230Z,19.23
2019-01-27T11:47:12.163Z,19.40
2019-01-27T11:48:19.632Z,22.50
2019-01-27T11:49:24.600Z,22.10
2019-01-27T11:50:29.530Z,23.00
2019-01-27T11:51:34.258Z,23.93
2019-01-27T11:52:37.613Z,25.27
2019-01-27T11:53:40.983Z,22.53
2019-01-27T11:54:44.391Z,18.43
2019-01-27T11:55:47.782Z,16.50
2019-01-27T11:56:51.063Z,17.67
2019-01-27T11:57:54.352Z,24.00
2019-01-27T11:58:57.660Z,22.30
2019-01-27T12:00:01.422Z,23.90
2019-01-27T12:01:05.806Z,22.40
2019-01-27T12:02:09.083Z,18.30
2019-01-27T12:03:12.788Z,23.90
2019-01-27T12:04:16.086Z,19.53
2019-01-27T12:05:19.464Z,21.10
2019-01-27T12:06:22.834Z,19.93
2019-01-27T12:07:26.145Z,20.37
2019-01-27T12:08:29.415Z,23.00
2019-01-27T12:09:32.766Z,13.37
2019-01-27T12:10:37.041Z,14.73
2019-01-27T12:11:40.334Z,15.80
2019-01-27T12:12:43.751Z,17.77
2019-01-27T12:13:47.090Z,14.37
2019-01-27T12:14:50.423Z,11.80
2019-01-27T12:15:53.732Z,12.77
2019-01-27T12:16:57.015Z,16.03
2019-01-27T12:18:00.396Z,15.70
2019-01-27T12:19:03.764Z,29.90
2019-01-27T12:20:10.074Z,15.43
2019-01-27T12:21:13.460Z,13.50
2019-01-27T12:22:16.744Z,21.87
2019-01-27T12:23:20.084Z,14.53
2019-01-27T12:24:23.792Z,24.17
2019-01-27T12:25:27.139Z,15.57
2019-01-27T12:26:30.461Z,14.20
2019-01-27T12:27:33.747Z,14.50
2019-01-27T12:28:37.178Z,15.97
2019-01-27T12:29:40.456Z,15.17
2019-01-27T12:30:43.739Z,15.23
2019-01-27T12:31:47.126Z,13.03
2019-01-27T12:32:50.423Z,15.47
2019-01-27T12:33:54.006Z,15.60
2019-01-27T12:34:57.288Z,13.90
2019-01-27T12:36:00.668Z,11.53
2019-01-27T12:37:04.379Z,15.50
2019-01-27T12:38:07.660Z,24.47
2019-01-27T12:39:11.011Z,14.57
2019-01-27T12:40:17.204Z,18.43
2019-01-27T12:41:20.571Z,13.70
2019-01-27T12:42:23.933Z,13.47
2019-01-27T12:43:27.301Z,11.17
2019-01-27T12:44:30.592Z,10.07
2019-01-27T12:45:33.994Z,11.47
2019-01-27T12:46:37.342Z,9.83
2019-01-27T12:47:40.803Z,12.80
2019-01-27T12:48:44.162Z,11.30
2019-01-27T12:49:47.437Z,12.03
2019-01-27T12:50:50.741Z,12.37
2019-01-27T12:51:54.383Z,18.07
2019-01-27T12:52:57.698Z,18.00
2019-01-27T12:54:00.983Z,14.13
2019-01-27T12:55:06.218Z,17.17
2019-01-27T12:56:09.509Z,15.67
2019-01-27T12:57:12.872Z,17.70
2019-01-27T12:58:16.207Z,21.77
2019-01-27T12:59:19.499Z,20.67
2019-01-27T13:00:28.862Z,27.43
2019-01-27T13:01:32.150Z,21.27
2019-01-27T13:02:35.434Z,22.83
2019-01-27T13:03:38.757Z,21.23
2019-01-27T13:04:42.045Z,21.37
2019-01-27T13:05:45.409Z,26.23
2019-01-27T13:06:48.698Z,21.23
2019-01-27T13:07:51.999Z,17.20
2019-01-27T13:08:55.289Z,61.70
2019-01-27T13:09:58.571Z,26.87
2019-01-27T13:11:05.697Z,23.10
2019-01-27T13:12:07.814Z,22.90
2019-01-27T13:13:12.245Z,20.53
2019-01-27T13:14:15.605Z,63.90
2019-01-27T13:15:20.946Z,25.83
2019-01-27T13:16:24.232Z,37.80
2019-01-27T13:17:27.513Z,21.23
2019-01-27T13:18:30.795Z,26.00
2019-01-27T13:19:34.102Z,39.30
2019-01-27T13:20:37.464Z,32.30
2019-01-27T13:21:40.757Z,34.17
2019-01-27T13:22:44.280Z,27.57
2019-01-27T13:23:47.570Z,31.43
2019-01-27T13:24:50.887Z,25.33
2019-01-27T13:25:54.249Z,26.10
2019-01-27T13:26:57.542Z,39.63
2019-01-27T13:28:00.832Z,29.27
2019-01-27T13:29:04.123Z,24.13
2019-01-27T13:30:19.769Z,36.77
2019-01-27T13:31:23.153Z,30.30
2019-01-27T13:32:26.438Z,24.40
2019-01-27T13:33:29.732Z,21.33
2019-01-27T13:34:33.023Z,22.63
2019-01-27T13:35:38.821Z,40.90
2019-01-27T13:36:41.461Z,41.87
2019-01-27T13:37:44.755Z,18.00
2019-01-27T13:38:51.180Z,19.50
2019-01-27T13:39:53.484Z,34.83
2019-01-27T13:40:56.864Z,30.37
2019-01-27T13:42:00.218Z,28.17
2019-01-27T13:43:03.588Z,19.97
2019-01-27T13:44:07.009Z,26.93
2019-01-27T13:45:13.803Z,24.53
2019-01-27T13:46:17.484Z,21.83
2019-01-27T13:47:20.805Z,22.27
2019-01-27T13:48:24.152Z,23.67
2019-01-27T13:49:27.514Z,25.27
2019-01-27T13:50:30.801Z,17.20
2019-01-27T13:51:34.199Z,30.40
2019-01-27T13:52:37.491Z,25.27
2019-01-27T13:53:40.777Z,18.00
2019-01-27T13:54:44.062Z,18.77
2019-01-27T13:55:47.346Z,17.80
2019-01-27T13:56:50.659Z,18.93
2019-01-27T13:57:54.023Z,19.20
2019-01-27T13:58:57.319Z,16.73
2019-01-27T14:00:00.615Z,18.10
2019-01-27T14:01:03.905Z,19.03
2019-01-27T14:02:07.225Z,18.30
2019-01-27T14:03:10.607Z,24.17
2019-01-27T14:04:13.909Z,24.03
2019-01-27T14:05:17.227Z,24.43
2019-01-27T14:06:20.515Z,24.10
2019-01-27T14:07:23.810Z,21.70